sensor_id;sensor_type;location;lat;lon;timestamp;P1;durP1;ratioP1;P2;durP2;ratioP2
41653;SDS011;30790;52.030;7.110;2022-11-15T00:01:40;7.22;;;4.13;;
41653;SDS011;30790;52.030;7.110;2022-11-15T00:04:06;6.38;;;4.35;;
41653;SDS011;30790;52.030;7.110;2022-11-15T00:06:31;5.55;;;4.13;;
41653;SDS011;30790;52.030;7.110;2022-11-15T00:08:57;7.28;;;3.83;;
41653;SDS011;30790;52.030;7.110;2022-11-15T00:11:23;7.03;;;3.80;;
41653;SDS011;30790;52.030;7.110;2022-11-15T00:13:48;6.80;;;4.00;;
41653;SDS011;30790;52.030;7.110;2022-11-15T00:16:14;6.28;;;3.63;;
41653;SDS011;30790;52.030;7.110;2022-11-15T00:18:39;5.80;;;3.60;;
41653;SDS011;30790;52.030;7.110;2022-11-15T00:21:06;5.55;;;3.88;;
41653;SDS011;30790;52.030;7.110;2022-11-15T00:23:33;4.25;;;3.35;;
41653;SDS011;30790;52.030;7.110;2022-11-15T00:25:59;5.95;;;3.78;;
41653;SDS011;30790;52.030;7.110;2022-11-15T00:28:25;5.40;;;4.07;;
41653;SDS011;30790;52.030;7.110;2022-11-15T00:30:50;5.95;;;3.90;;
41653;SDS011;30790;52.030;7.110;2022-11-15T00:33:16;5.28;;;3.80;;
41653;SDS011;30790;52.030;7.110;2022-11-15T00:35:41;5.90;;;3.60;;
41653;SDS011;30790;52.030;7.110;2022-11-15T00:38:06;5.22;;;3.75;;
41653;SDS011;30790;52.030;7.110;2022-11-15T00:40:32;6.03;;;3.65;;
41653;SDS011;30790;52.030;7.110;2022-11-15T00:42:57;6.65;;;4.03;;
41653;SDS011;30790;52.030;7.110;2022-11-15T00:45:23;5.25;;;3.88;;
41653;SDS011;30790;52.030;7.110;2022-11-15T00:47:48;6.65;;;3.60;;
41653;SDS011;30790;52.030;7.110;2022-11-15T00:50:14;4.00;;;3.38;;
41653;SDS011;30790;52.030;7.110;2022-11-15T00:52:40;4.93;;;3.75;;
41653;SDS011;30790;52.030;7.110;2022-11-15T00:55:05;7.10;;;3.58;;
41653;SDS011;30790;52.030;7.110;2022-11-15T00:57:31;6.05;;;3.50;;
41653;SDS011;30790;52.030;7.110;2022-11-15T00:59:56;5.33;;;3.10;;
41653;SDS011;30790;52.030;7.110;2022-11-15T01:02:21;6.05;;;3.92;;
41653;SDS011;30790;52.030;7.110;2022-11-15T01:04:47;6.10;;;3.30;;
41653;SDS011;30790;52.030;7.110;2022-11-15T01:07:12;8.00;;;3.72;;
41653;SDS011;30790;52.030;7.110;2022-11-15T01:09:38;6.22;;;3.83;;
41653;SDS011;30790;52.030;7.110;2022-11-15T01:12:03;6.20;;;3.92;;
41653;SDS011;30790;52.030;7.110;2022-11-15T01:14:28;5.40;;;3.33;;
41653;SDS011;30790;52.030;7.110;2022-11-15T01:16:54;5.38;;;3.88;;
41653;SDS011;30790;52.030;7.110;2022-11-15T01:19:19;5.53;;;3.72;;
41653;SDS011;30790;52.030;7.110;2022-11-15T01:21:44;5.28;;;3.50;;
41653;SDS011;30790;52.030;7.110;2022-11-15T01:24:11;6.10;;;4.05;;
41653;SDS011;30790;52.030;7.110;2022-11-15T01:26:37;5.25;;;3.42;;
41653;SDS011;30790;52.030;7.110;2022-11-15T01:29:03;6.53;;;3.85;;
41653;SDS011;30790;52.030;7.110;2022-11-15T01:31:28;3.55;;;3.22;;
41653;SDS011;30790;52.030;7.110;2022-11-15T01:33:54;4.28;;;3.42;;
41653;SDS011;30790;52.030;7.110;2022-11-15T01:36:20;4.28;;;3.45;;
41653;SDS011;30790;52.030;7.110;2022-11-15T01:38:52;5.05;;;3.42;;
41653;SDS011;30790;52.030;7.110;2022-11-15T01:41:20;5.75;;;3.80;;
41653;SDS011;30790;52.030;7.110;2022-11-15T01:43:54;3.90;;;3.22;;
41653;SDS011;30790;52.030;7.110;2022-11-15T01:49:00;4.28;;;3.47;;
41653;SDS011;30790;52.030;7.110;2022-11-15T01:51:31;6.00;;;3.40;;
41653;SDS011;30790;52.030;7.110;2022-11-15T01:53:59;4.68;;;3.35;;
41653;SDS011;30790;52.030;7.110;2022-11-15T01:56:29;4.72;;;3.33;;
41653;SDS011;30790;52.030;7.110;2022-11-15T01:58:58;5.97;;;3.55;;
41653;SDS011;30790;52.030;7.110;2022-11-15T02:01:26;5.63;;;3.42;;
41653;SDS011;30790;52.030;7.110;2022-11-15T02:04:01;4.47;;;3.55;;
41653;SDS011;30790;52.030;7.110;2022-11-15T02:06:34;5.80;;;3.28;;
41653;SDS011;30790;52.030;7.110;2022-11-15T02:09:00;4.43;;;3.40;;
41653;SDS011;30790;52.030;7.110;2022-11-15T02:11:26;5.85;;;3.85;;
41653;SDS011;30790;52.030;7.110;2022-11-15T02:13:51;3.65;;;3.22;;
41653;SDS011;30790;52.030;7.110;2022-11-15T02:16:35;5.65;;;3.20;;
41653;SDS011;30790;52.030;7.110;2022-11-15T02:19:22;4.32;;;3.35;;
41653;SDS011;30790;52.030;7.110;2022-11-15T02:22:22;4.32;;;3.20;;
41653;SDS011;30790;52.030;7.110;2022-11-15T02:34:25;5.30;;;3.70;;
41653;SDS011;30790;52.030;7.110;2022-11-15T02:39:51;3.55;;;3.13;;
41653;SDS011;30790;52.030;7.110;2022-11-15T02:42:26;4.72;;;3.45;;
41653;SDS011;30790;52.030;7.110;2022-11-15T02:45:27;4.90;;;3.47;;
41653;SDS011;30790;52.030;7.110;2022-11-15T02:47:56;3.75;;;3.20;;
41653;SDS011;30790;52.030;7.110;2022-11-15T02:50:28;6.47;;;3.63;;
41653;SDS011;30790;52.030;7.110;2022-11-15T02:52:55;5.47;;;3.28;;
41653;SDS011;30790;52.030;7.110;2022-11-15T02:58:03;5.40;;;3.42;;
41653;SDS011;30790;52.030;7.110;2022-11-15T03:00:59;4.32;;;3.30;;
41653;SDS011;30790;52.030;7.110;2022-11-15T03:03:36;4.20;;;3.53;;
41653;SDS011;30790;52.030;7.110;2022-11-15T03:06:15;5.38;;;3.20;;
41653;SDS011;30790;52.030;7.110;2022-11-15T03:09:02;4.85;;;3.33;;
41653;SDS011;30790;52.030;7.110;2022-11-15T03:11:34;4.47;;;3.33;;
41653;SDS011;30790;52.030;7.110;2022-11-15T03:14:05;5.70;;;3.30;;
41653;SDS011;30790;52.030;7.110;2022-11-15T03:19:22;3.22;;;2.85;;
41653;SDS011;30790;52.030;7.110;2022-11-15T03:21:58;4.20;;;2.72;;
41653;SDS011;30790;52.030;7.110;2022-11-15T03:24:27;3.80;;;3.15;;
41653;SDS011;30790;52.030;7.110;2022-11-15T03:26:56;6.05;;;3.25;;
41653;SDS011;30790;52.030;7.110;2022-11-15T03:29:27;4.63;;;3.13;;
41653;SDS011;30790;52.030;7.110;2022-11-15T03:32:08;4.55;;;3.55;;
41653;SDS011;30790;52.030;7.110;2022-11-15T03:34:47;3.88;;;2.85;;
41653;SDS011;30790;52.030;7.110;2022-11-15T03:37:16;5.57;;;3.33;;
41653;SDS011;30790;52.030;7.110;2022-11-15T03:39:43;4.13;;;3.03;;
41653;SDS011;30790;52.030;7.110;2022-11-15T03:47:25;4.97;;;3.37;;
41653;SDS011;30790;52.030;7.110;2022-11-15T03:50:03;3.33;;;2.80;;
41653;SDS011;30790;52.030;7.110;2022-11-15T03:52:35;4.72;;;3.30;;
41653;SDS011;30790;52.030;7.110;2022-11-15T03:55:03;4.78;;;3.17;;
41653;SDS011;30790;52.030;7.110;2022-11-15T03:57:29;3.35;;;3.05;;
41653;SDS011;30790;52.030;7.110;2022-11-15T03:59:54;3.90;;;3.20;;
41653;SDS011;30790;52.030;7.110;2022-11-15T04:02:20;4.15;;;3.05;;
41653;SDS011;30790;52.030;7.110;2022-11-15T04:04:45;5.72;;;3.35;;
41653;SDS011;30790;52.030;7.110;2022-11-15T04:07:10;3.55;;;3.00;;
41653;SDS011;30790;52.030;7.110;2022-11-15T04:09:36;4.05;;;3.00;;
41653;SDS011;30790;52.030;7.110;2022-11-15T04:12:23;3.30;;;2.72;;
41653;SDS011;30790;52.030;7.110;2022-11-15T04:14:59;6.47;;;3.80;;
41653;SDS011;30790;52.030;7.110;2022-11-15T04:17:35;3.28;;;2.75;;
41653;SDS011;30790;52.030;7.110;2022-11-15T04:20:21;4.05;;;3.10;;
41653;SDS011;30790;52.030;7.110;2022-11-15T04:23:08;5.65;;;3.35;;
41653;SDS011;30790;52.030;7.110;2022-11-15T04:25:55;3.25;;;2.90;;
41653;SDS011;30790;52.030;7.110;2022-11-15T04:28:21;4.13;;;3.00;;
41653;SDS011;30790;52.030;7.110;2022-11-15T04:30:47;4.95;;;3.63;;
41653;SDS011;30790;52.030;7.110;2022-11-15T04:33:12;3.58;;;2.75;;
41653;SDS011;30790;52.030;7.110;2022-11-15T04:35:38;4.13;;;3.38;;
41653;SDS011;30790;52.030;7.110;2022-11-15T04:38:05;3.30;;;2.78;;
41653;SDS011;30790;52.030;7.110;2022-11-15T04:40:31;5.20;;;3.13;;
41653;SDS011;30790;52.030;7.110;2022-11-15T04:42:56;5.00;;;3.00;;
41653;SDS011;30790;52.030;7.110;2022-11-15T04:45:22;2.95;;;2.60;;
41653;SDS011;30790;52.030;7.110;2022-11-15T04:47:47;4.22;;;2.67;;
41653;SDS011;30790;52.030;7.110;2022-11-15T04:50:13;4.05;;;2.53;;
41653;SDS011;30790;52.030;7.110;2022-11-15T04:52:42;4.13;;;2.88;;
41653;SDS011;30790;52.030;7.110;2022-11-15T04:55:15;3.05;;;2.63;;
41653;SDS011;30790;52.030;7.110;2022-11-15T04:57:40;4.28;;;3.05;;
41653;SDS011;30790;52.030;7.110;2022-11-15T05:00:06;3.78;;;2.63;;
41653;SDS011;30790;52.030;7.110;2022-11-15T05:02:34;3.05;;;2.67;;
41653;SDS011;30790;52.030;7.110;2022-11-15T05:05:18;3.97;;;3.13;;
41653;SDS011;30790;52.030;7.110;2022-11-15T05:07:43;5.43;;;2.95;;
41653;SDS011;30790;52.030;7.110;2022-11-15T05:10:09;3.47;;;2.40;;
41653;SDS011;30790;52.030;7.110;2022-11-15T05:12:34;3.58;;;2.75;;
41653;SDS011;30790;52.030;7.110;2022-11-15T05:15:00;3.45;;;2.40;;
41653;SDS011;30790;52.030;7.110;2022-11-15T05:17:25;3.63;;;2.80;;
41653;SDS011;30790;52.030;7.110;2022-11-15T05:19:50;3.65;;;2.60;;
41653;SDS011;30790;52.030;7.110;2022-11-15T05:22:17;4.05;;;2.70;;
41653;SDS011;30790;52.030;7.110;2022-11-15T05:24:42;4.22;;;2.90;;
41653;SDS011;30790;52.030;7.110;2022-11-15T05:27:07;2.70;;;2.30;;
41653;SDS011;30790;52.030;7.110;2022-11-15T05:29:33;4.25;;;2.63;;
41653;SDS011;30790;52.030;7.110;2022-11-15T05:31:58;2.60;;;2.38;;
41653;SDS011;30790;52.030;7.110;2022-11-15T05:34:23;3.60;;;2.55;;
41653;SDS011;30790;52.030;7.110;2022-11-15T05:36:50;3.65;;;2.35;;
41653;SDS011;30790;52.030;7.110;2022-11-15T05:39:15;3.22;;;2.42;;
41653;SDS011;30790;52.030;7.110;2022-11-15T05:44:13;2.75;;;2.40;;
41653;SDS011;30790;52.030;7.110;2022-11-15T05:46:41;2.80;;;2.45;;
41653;SDS011;30790;52.030;7.110;2022-11-15T05:49:07;3.53;;;2.50;;
41653;SDS011;30790;52.030;7.110;2022-11-15T05:51:36;3.22;;;2.47;;
41653;SDS011;30790;52.030;7.110;2022-11-15T05:54:02;3.13;;;2.70;;
41653;SDS011;30790;52.030;7.110;2022-11-15T05:56:28;3.72;;;2.83;;
41653;SDS011;30790;52.030;7.110;2022-11-15T05:58:54;1.95;;;1.80;;
41653;SDS011;30790;52.030;7.110;2022-11-15T06:01:21;3.20;;;2.50;;
41653;SDS011;30790;52.030;7.110;2022-11-15T06:03:47;4.15;;;2.70;;
41653;SDS011;30790;52.030;7.110;2022-11-15T06:06:12;3.15;;;2.40;;
41653;SDS011;30790;52.030;7.110;2022-11-15T06:08:37;2.80;;;2.50;;
41653;SDS011;30790;52.030;7.110;2022-11-15T06:11:03;4.85;;;2.58;;
41653;SDS011;30790;52.030;7.110;2022-11-15T06:13:30;2.78;;;2.38;;
41653;SDS011;30790;52.030;7.110;2022-11-15T06:15:55;2.60;;;2.15;;
41653;SDS011;30790;52.030;7.110;2022-11-15T06:18:21;3.53;;;2.67;;
41653;SDS011;30790;52.030;7.110;2022-11-15T06:20:46;3.45;;;2.50;;
41653;SDS011;30790;52.030;7.110;2022-11-15T06:23:12;3.20;;;2.50;;
41653;SDS011;30790;52.030;7.110;2022-11-15T06:25:38;3.17;;;2.35;;
41653;SDS011;30790;52.030;7.110;2022-11-15T06:28:03;3.50;;;2.28;;
41653;SDS011;30790;52.030;7.110;2022-11-15T06:30:29;3.45;;;2.67;;
41653;SDS011;30790;52.030;7.110;2022-11-15T06:33:01;2.75;;;2.08;;
41653;SDS011;30790;52.030;7.110;2022-11-15T06:35:27;2.88;;;2.17;;
41653;SDS011;30790;52.030;7.110;2022-11-15T06:37:53;2.55;;;2.03;;
41653;SDS011;30790;52.030;7.110;2022-11-15T06:40:19;3.83;;;2.38;;
41653;SDS011;30790;52.030;7.110;2022-11-15T06:42:44;3.15;;;2.50;;
41653;SDS011;30790;52.030;7.110;2022-11-15T06:45:09;4.63;;;2.60;;
41653;SDS011;30790;52.030;7.110;2022-11-15T06:47:35;3.20;;;2.63;;
41653;SDS011;30790;52.030;7.110;2022-11-15T06:50:00;2.85;;;2.30;;
41653;SDS011;30790;52.030;7.110;2022-11-15T06:52:26;5.18;;;2.55;;
41653;SDS011;30790;52.030;7.110;2022-11-15T06:54:51;4.55;;;2.60;;
41653;SDS011;30790;52.030;7.110;2022-11-15T06:57:17;5.72;;;3.13;;
41653;SDS011;30790;52.030;7.110;2022-11-15T06:59:42;5.07;;;2.57;;
41653;SDS011;30790;52.030;7.110;2022-11-15T07:02:11;2.95;;;2.20;;
41653;SDS011;30790;52.030;7.110;2022-11-15T07:04:38;4.75;;;2.50;;
41653;SDS011;30790;52.030;7.110;2022-11-15T07:07:03;7.32;;;2.50;;
41653;SDS011;30790;52.030;7.110;2022-11-15T07:09:28;4.45;;;2.17;;
41653;SDS011;30790;52.030;7.110;2022-11-15T07:11:54;9.80;;;3.13;;
41653;SDS011;30790;52.030;7.110;2022-11-15T07:14:19;8.27;;;2.92;;
41653;SDS011;30790;52.030;7.110;2022-11-15T07:16:44;5.28;;;2.63;;
41653;SDS011;30790;52.030;7.110;2022-11-15T07:19:09;7.80;;;2.95;;
41653;SDS011;30790;52.030;7.110;2022-11-15T07:21:35;5.72;;;2.67;;
41653;SDS011;30790;52.030;7.110;2022-11-15T07:24:01;5.32;;;2.80;;
41653;SDS011;30790;52.030;7.110;2022-11-15T07:26:27;8.48;;;2.63;;
41653;SDS011;30790;52.030;7.110;2022-11-15T07:28:52;7.93;;;2.60;;
41653;SDS011;30790;52.030;7.110;2022-11-15T07:31:17;11.07;;;3.03;;
41653;SDS011;30790;52.030;7.110;2022-11-15T07:33:42;6.22;;;2.67;;
41653;SDS011;30790;52.030;7.110;2022-11-15T07:36:08;9.13;;;2.88;;
41653;SDS011;30790;52.030;7.110;2022-11-15T07:38:34;7.43;;;3.10;;
41653;SDS011;30790;52.030;7.110;2022-11-15T07:41:00;8.45;;;3.55;;
41653;SDS011;30790;52.030;7.110;2022-11-15T07:43:27;11.80;;;3.45;;
41653;SDS011;30790;52.030;7.110;2022-11-15T07:45:54;10.45;;;3.08;;
41653;SDS011;30790;52.030;7.110;2022-11-15T07:48:19;8.52;;;3.35;;
41653;SDS011;30790;52.030;7.110;2022-11-15T07:50:44;15.17;;;3.77;;
41653;SDS011;30790;52.030;7.110;2022-11-15T07:53:10;15.48;;;3.80;;
41653;SDS011;30790;52.030;7.110;2022-11-15T07:55:35;18.25;;;4.03;;
41653;SDS011;30790;52.030;7.110;2022-11-15T07:58:02;13.50;;;4.10;;
41653;SDS011;30790;52.030;7.110;2022-11-15T08:00:31;15.95;;;4.00;;
41653;SDS011;30790;52.030;7.110;2022-11-15T08:03:07;23.52;;;3.90;;
41653;SDS011;30790;52.030;7.110;2022-11-15T08:05:34;18.25;;;4.03;;
41653;SDS011;30790;52.030;7.110;2022-11-15T08:08:01;12.38;;;3.75;;
41653;SDS011;30790;52.030;7.110;2022-11-15T08:10:27;21.63;;;4.55;;
41653;SDS011;30790;52.030;7.110;2022-11-15T08:12:57;20.33;;;4.72;;
41653;SDS011;30790;52.030;7.110;2022-11-15T08:15:27;19.02;;;4.88;;
41653;SDS011;30790;52.030;7.110;2022-11-15T08:17:54;19.67;;;4.57;;
41653;SDS011;30790;52.030;7.110;2022-11-15T08:20:20;11.77;;;4.25;;
41653;SDS011;30790;52.030;7.110;2022-11-15T08:22:45;14.18;;;4.50;;
41653;SDS011;30790;52.030;7.110;2022-11-15T08:25:11;23.88;;;5.28;;
41653;SDS011;30790;52.030;7.110;2022-11-15T08:27:36;17.33;;;4.88;;
41653;SDS011;30790;52.030;7.110;2022-11-15T08:30:02;18.60;;;5.25;;
41653;SDS011;30790;52.030;7.110;2022-11-15T08:32:27;28.52;;;5.07;;
41653;SDS011;30790;52.030;7.110;2022-11-15T08:34:53;16.77;;;5.32;;
41653;SDS011;30790;52.030;7.110;2022-11-15T08:37:18;25.30;;;5.20;;
41653;SDS011;30790;52.030;7.110;2022-11-15T08:39:43;29.75;;;4.80;;
41653;SDS011;30790;52.030;7.110;2022-11-15T08:42:08;16.17;;;4.28;;
41653;SDS011;30790;52.030;7.110;2022-11-15T08:44:34;20.17;;;4.93;;
41653;SDS011;30790;52.030;7.110;2022-11-15T08:46:59;17.67;;;5.00;;
41653;SDS011;30790;52.030;7.110;2022-11-15T08:49:24;23.07;;;5.63;;
41653;SDS011;30790;52.030;7.110;2022-11-15T08:51:49;15.82;;;4.50;;
41653;SDS011;30790;52.030;7.110;2022-11-15T08:54:15;14.53;;;4.50;;
41653;SDS011;30790;52.030;7.110;2022-11-15T08:56:40;17.85;;;5.45;;
41653;SDS011;30790;52.030;7.110;2022-11-15T08:59:05;17.63;;;4.63;;
41653;SDS011;30790;52.030;7.110;2022-11-15T09:01:30;25.20;;;5.03;;
41653;SDS011;30790;52.030;7.110;2022-11-15T09:03:57;22.25;;;5.18;;
41653;SDS011;30790;52.030;7.110;2022-11-15T09:06:22;21.33;;;4.75;;
41653;SDS011;30790;52.030;7.110;2022-11-15T09:08:48;20.30;;;5.53;;
41653;SDS011;30790;52.030;7.110;2022-11-15T09:11:13;26.52;;;5.18;;
41653;SDS011;30790;52.030;7.110;2022-11-15T09:13:41;23.17;;;5.13;;
41653;SDS011;30790;52.030;7.110;2022-11-15T09:16:06;16.08;;;4.45;;
41653;SDS011;30790;52.030;7.110;2022-11-15T09:18:32;24.07;;;4.90;;
41653;SDS011;30790;52.030;7.110;2022-11-15T09:20:58;18.65;;;4.75;;
41653;SDS011;30790;52.030;7.110;2022-11-15T09:23:25;22.52;;;4.10;;
41653;SDS011;30790;52.030;7.110;2022-11-15T09:25:51;16.83;;;5.22;;
41653;SDS011;30790;52.030;7.110;2022-11-15T09:28:16;25.23;;;4.35;;
41653;SDS011;30790;52.030;7.110;2022-11-15T09:30:42;17.73;;;5.15;;
41653;SDS011;30790;52.030;7.110;2022-11-15T09:33:08;19.48;;;5.22;;
41653;SDS011;30790;52.030;7.110;2022-11-15T09:35:34;28.20;;;4.65;;
41653;SDS011;30790;52.030;7.110;2022-11-15T09:37:59;18.88;;;4.32;;
41653;SDS011;30790;52.030;7.110;2022-11-15T09:40:25;22.95;;;4.32;;
41653;SDS011;30790;52.030;7.110;2022-11-15T09:45:37;18.95;;;4.90;;
41653;SDS011;30790;52.030;7.110;2022-11-15T09:51:02;22.50;;;4.28;;
41653;SDS011;30790;52.030;7.110;2022-11-15T09:53:31;15.90;;;4.22;;
41653;SDS011;30790;52.030;7.110;2022-11-15T09:56:14;17.55;;;4.28;;
41653;SDS011;30790;52.030;7.110;2022-11-15T10:04:22;18.70;;;4.57;;
41653;SDS011;30790;52.030;7.110;2022-11-15T10:09:31;22.00;;;5.03;;
41653;SDS011;30790;52.030;7.110;2022-11-15T10:12:03;11.77;;;4.10;;
41653;SDS011;30790;52.030;7.110;2022-11-15T10:14:29;25.48;;;4.68;;
41653;SDS011;30790;52.030;7.110;2022-11-15T10:24:46;15.27;;;4.10;;
41653;SDS011;30790;52.030;7.110;2022-11-15T10:27:17;26.15;;;4.97;;
41653;SDS011;30790;52.030;7.110;2022-11-15T10:29:47;16.88;;;4.50;;
41653;SDS011;30790;52.030;7.110;2022-11-15T10:32:15;20.65;;;4.25;;
41653;SDS011;30790;52.030;7.110;2022-11-15T10:34:44;24.15;;;4.65;;
41653;SDS011;30790;52.030;7.110;2022-11-15T10:37:10;19.05;;;4.32;;
41653;SDS011;30790;52.030;7.110;2022-11-15T10:39:35;22.33;;;4.15;;
41653;SDS011;30790;52.030;7.110;2022-11-15T10:44:52;20.02;;;4.88;;
41653;SDS011;30790;52.030;7.110;2022-11-15T10:47:28;24.92;;;4.38;;
41653;SDS011;30790;52.030;7.110;2022-11-15T10:49:59;25.88;;;4.18;;
41653;SDS011;30790;52.030;7.110;2022-11-15T10:52:50;19.00;;;4.35;;
41653;SDS011;30790;52.030;7.110;2022-11-15T10:57:47;18.83;;;4.80;;
41653;SDS011;30790;52.030;7.110;2022-11-15T11:03:05;22.92;;;4.22;;
41653;SDS011;30790;52.030;7.110;2022-11-15T11:05:36;18.90;;;3.70;;
41653;SDS011;30790;52.030;7.110;2022-11-15T11:08:04;20.88;;;4.40;;
41653;SDS011;30790;52.030;7.110;2022-11-15T11:10:39;20.27;;;4.55;;
41653;SDS011;30790;52.030;7.110;2022-11-15T11:13:24;20.15;;;4.80;;
41653;SDS011;30790;52.030;7.110;2022-11-15T11:15:54;28.05;;;4.65;;
41653;SDS011;30790;52.030;7.110;2022-11-15T11:18:32;25.05;;;4.95;;
41653;SDS011;30790;52.030;7.110;2022-11-15T11:21:05;18.50;;;4.68;;
41653;SDS011;30790;52.030;7.110;2022-11-15T11:23:40;19.20;;;4.22;;
41653;SDS011;30790;52.030;7.110;2022-11-15T11:26:31;14.15;;;4.05;;
41653;SDS011;30790;52.030;7.110;2022-11-15T11:31:56;24.63;;;4.65;;
41653;SDS011;30790;52.030;7.110;2022-11-15T11:34:40;25.75;;;4.97;;
41653;SDS011;30790;52.030;7.110;2022-11-15T11:37:14;30.33;;;4.82;;
41653;SDS011;30790;52.030;7.110;2022-11-15T11:42:35;25.03;;;4.77;;
41653;SDS011;30790;52.030;7.110;2022-11-15T11:47:48;30.27;;;5.83;;
41653;SDS011;30790;52.030;7.110;2022-11-15T11:50:25;24.33;;;4.85;;
41653;SDS011;30790;52.030;7.110;2022-11-15T11:55:34;32.65;;;6.32;;
41653;SDS011;30790;52.030;7.110;2022-11-15T12:00:54;40.83;;;6.80;;
41653;SDS011;30790;52.030;7.110;2022-11-15T12:03:24;32.28;;;6.28;;
41653;SDS011;30790;52.030;7.110;2022-11-15T12:05:54;34.80;;;5.93;;
41653;SDS011;30790;52.030;7.110;2022-11-15T12:08:39;35.85;;;6.18;;
41653;SDS011;30790;52.030;7.110;2022-11-15T12:11:12;30.90;;;5.78;;
41653;SDS011;30790;52.030;7.110;2022-11-15T12:13:53;28.30;;;6.05;;
41653;SDS011;30790;52.030;7.110;2022-11-15T12:16:24;29.20;;;5.40;;
41653;SDS011;30790;52.030;7.110;2022-11-15T12:18:56;24.17;;;5.72;;
41653;SDS011;30790;52.030;7.110;2022-11-15T12:21:43;31.75;;;5.57;;
41653;SDS011;30790;52.030;7.110;2022-11-15T12:24:24;42.25;;;6.68;;
41653;SDS011;30790;52.030;7.110;2022-11-15T12:29:41;23.67;;;5.35;;
41653;SDS011;30790;52.030;7.110;2022-11-15T12:32:17;32.25;;;5.00;;
41653;SDS011;30790;52.030;7.110;2022-11-15T12:34:50;28.08;;;5.30;;
41653;SDS011;30790;52.030;7.110;2022-11-15T12:43:00;22.45;;;5.22;;
41653;SDS011;30790;52.030;7.110;2022-11-15T12:45:49;17.10;;;4.82;;
41653;SDS011;30790;52.030;7.110;2022-11-15T13:12:06;20.75;;;4.05;;
41653;SDS011;30790;52.030;7.110;2022-11-15T13:17:02;22.38;;;4.57;;
41653;SDS011;30790;52.030;7.110;2022-11-15T13:19:37;18.33;;;4.45;;
41653;SDS011;30790;52.030;7.110;2022-11-15T13:22:04;27.63;;;4.75;;
41653;SDS011;30790;52.030;7.110;2022-11-15T13:24:52;18.00;;;4.07;;
41653;SDS011;30790;52.030;7.110;2022-11-15T13:27:18;14.23;;;4.15;;
41653;SDS011;30790;52.030;7.110;2022-11-15T13:29:44;17.63;;;4.22;;
41653;SDS011;30790;52.030;7.110;2022-11-15T13:32:13;15.48;;;3.60;;
41653;SDS011;30790;52.030;7.110;2022-11-15T13:34:44;16.95;;;4.05;;
41653;SDS011;30790;52.030;7.110;2022-11-15T13:39:46;14.60;;;4.13;;
41653;SDS011;30790;52.030;7.110;2022-11-15T13:42:16;16.30;;;4.20;;
41653;SDS011;30790;52.030;7.110;2022-11-15T13:44:59;15.55;;;3.33;;
41653;SDS011;30790;52.030;7.110;2022-11-15T13:47:27;17.65;;;3.72;;
41653;SDS011;30790;52.030;7.110;2022-11-15T13:49:54;9.80;;;3.22;;
41653;SDS011;30790;52.030;7.110;2022-11-15T13:52:21;11.05;;;3.22;;
41653;SDS011;30790;52.030;7.110;2022-11-15T13:57:37;18.35;;;4.22;;
41653;SDS011;30790;52.030;7.110;2022-11-15T14:00:25;12.82;;;3.70;;
41653;SDS011;30790;52.030;7.110;2022-11-15T14:02:50;12.07;;;4.13;;
41653;SDS011;30790;52.030;7.110;2022-11-15T14:05:34;11.45;;;3.10;;
41653;SDS011;30790;52.030;7.110;2022-11-15T14:08:05;11.40;;;3.40;;
41653;SDS011;30790;52.030;7.110;2022-11-15T14:10:47;16.63;;;3.80;;
41653;SDS011;30790;52.030;7.110;2022-11-15T14:13:29;15.60;;;3.72;;
41653;SDS011;30790;52.030;7.110;2022-11-15T14:16:15;13.80;;;4.05;;
41653;SDS011;30790;52.030;7.110;2022-11-15T14:18:43;9.45;;;3.53;;
41653;SDS011;30790;52.030;7.110;2022-11-15T14:21:09;12.52;;;3.60;;
41653;SDS011;30790;52.030;7.110;2022-11-15T14:23:35;13.25;;;3.85;;
41653;SDS011;30790;52.030;7.110;2022-11-15T14:26:01;10.13;;;3.50;;
41653;SDS011;30790;52.030;7.110;2022-11-15T14:30:52;16.83;;;3.37;;
41653;SDS011;30790;52.030;7.110;2022-11-15T14:33:33;12.02;;;3.42;;
41653;SDS011;30790;52.030;7.110;2022-11-15T14:36:14;11.43;;;3.90;;
41653;SDS011;30790;52.030;7.110;2022-11-15T14:38:44;14.73;;;3.15;;
41653;SDS011;30790;52.030;7.110;2022-11-15T14:41:15;13.50;;;3.15;;
41653;SDS011;30790;52.030;7.110;2022-11-15T14:43:46;9.55;;;3.05;;
41653;SDS011;30790;52.030;7.110;2022-11-15T14:46:12;11.52;;;2.97;;
41653;SDS011;30790;52.030;7.110;2022-11-15T14:48:37;15.55;;;3.15;;
41653;SDS011;30790;52.030;7.110;2022-11-15T14:51:03;13.00;;;3.50;;
41653;SDS011;30790;52.030;7.110;2022-11-15T14:53:28;12.25;;;3.38;;
41653;SDS011;30790;52.030;7.110;2022-11-15T14:55:53;12.80;;;3.88;;
41653;SDS011;30790;52.030;7.110;2022-11-15T14:58:19;12.52;;;3.33;;
41653;SDS011;30790;52.030;7.110;2022-11-15T15:00:44;14.35;;;3.88;;
41653;SDS011;30790;52.030;7.110;2022-11-15T15:03:09;11.93;;;3.63;;
41653;SDS011;30790;52.030;7.110;2022-11-15T15:05:39;8.60;;;2.65;;
41653;SDS011;30790;52.030;7.110;2022-11-15T15:08:06;9.35;;;2.78;;
41653;SDS011;30790;52.030;7.110;2022-11-15T15:10:34;10.30;;;3.20;;
41653;SDS011;30790;52.030;7.110;2022-11-15T15:13:01;9.15;;;2.60;;
41653;SDS011;30790;52.030;7.110;2022-11-15T15:15:31;10.75;;;2.92;;
41653;SDS011;30790;52.030;7.110;2022-11-15T15:18:00;10.85;;;3.47;;
41653;SDS011;30790;52.030;7.110;2022-11-15T15:20:26;14.98;;;3.67;;
41653;SDS011;30790;52.030;7.110;2022-11-15T15:22:52;19.67;;;3.72;;
41653;SDS011;30790;52.030;7.110;2022-11-15T15:25:27;11.65;;;3.25;;
41653;SDS011;30790;52.030;7.110;2022-11-15T15:27:53;14.95;;;3.28;;
41653;SDS011;30790;52.030;7.110;2022-11-15T15:30:20;17.02;;;3.50;;
41653;SDS011;30790;52.030;7.110;2022-11-15T15:32:46;8.65;;;2.63;;
41653;SDS011;30790;52.030;7.110;2022-11-15T15:35:12;8.65;;;3.17;;
41653;SDS011;30790;52.030;7.110;2022-11-15T15:37:38;14.50;;;3.25;;
41653;SDS011;30790;52.030;7.110;2022-11-15T15:40:08;12.98;;;3.83;;
41653;SDS011;30790;52.030;7.110;2022-11-15T15:42:37;14.70;;;3.10;;
41653;SDS011;30790;52.030;7.110;2022-11-15T15:45:03;17.37;;;4.17;;
41653;SDS011;30790;52.030;7.110;2022-11-15T15:47:28;15.77;;;3.35;;
41653;SDS011;30790;52.030;7.110;2022-11-15T15:49:54;12.97;;;3.63;;
41653;SDS011;30790;52.030;7.110;2022-11-15T15:52:19;19.42;;;3.97;;
41653;SDS011;30790;52.030;7.110;2022-11-15T15:54:44;17.47;;;3.50;;
41653;SDS011;30790;52.030;7.110;2022-11-15T15:57:11;10.95;;;3.50;;
41653;SDS011;30790;52.030;7.110;2022-11-15T15:59:38;16.00;;;3.47;;
41653;SDS011;30790;52.030;7.110;2022-11-15T16:02:03;17.40;;;3.35;;
41653;SDS011;30790;52.030;7.110;2022-11-15T16:04:28;12.60;;;2.97;;
41653;SDS011;30790;52.030;7.110;2022-11-15T16:06:58;16.63;;;3.60;;
41653;SDS011;30790;52.030;7.110;2022-11-15T16:09:23;17.33;;;3.25;;
41653;SDS011;30790;52.030;7.110;2022-11-15T16:12:09;25.65;;;4.55;;
41653;SDS011;30790;52.030;7.110;2022-11-15T16:14:34;13.55;;;3.28;;
41653;SDS011;30790;52.030;7.110;2022-11-15T16:17:00;17.40;;;3.08;;
41653;SDS011;30790;52.030;7.110;2022-11-15T16:19:25;11.63;;;3.15;;
41653;SDS011;30790;52.030;7.110;2022-11-15T16:21:50;17.90;;;3.70;;
41653;SDS011;30790;52.030;7.110;2022-11-15T16:24:16;10.02;;;3.20;;
41653;SDS011;30790;52.030;7.110;2022-11-15T16:26:42;16.67;;;3.20;;
41653;SDS011;30790;52.030;7.110;2022-11-15T16:29:08;17.33;;;4.22;;
41653;SDS011;30790;52.030;7.110;2022-11-15T16:31:35;20.17;;;3.53;;
41653;SDS011;30790;52.030;7.110;2022-11-15T16:34:00;16.50;;;3.63;;
41653;SDS011;30790;52.030;7.110;2022-11-15T16:36:26;10.60;;;3.50;;
41653;SDS011;30790;52.030;7.110;2022-11-15T16:38:54;20.35;;;3.63;;
41653;SDS011;30790;52.030;7.110;2022-11-15T16:41:19;14.45;;;3.53;;
41653;SDS011;30790;52.030;7.110;2022-11-15T16:43:46;10.23;;;3.60;;
41653;SDS011;30790;52.030;7.110;2022-11-15T16:46:19;12.32;;;2.90;;